EST,Max TemperatureF,Mean TemperatureF,Min TemperatureF,Max Dew PointF,MeanDew PointF,Min DewpointF,Max Humidity, Mean Humidity, Min Humidity, Max Sea Level PressureIn, Mean Sea Level PressureIn, Min Sea Level PressureIn, Max VisibilityMiles, Mean VisibilityMiles, Min VisibilityMiles, Max Wind SpeedMPH, Mean Wind SpeedMPH, Max Gust SpeedMPH,PrecipitationIn, CloudCover, Events, WindDirDegrees
2012-11-1,55,43,30,31,23,15,72,47,22,29.95,29.89,29.85,10,10,10,16,7,22,0.00,3,,272
2012-11-2,55,43,31,33,31,28,82,62,41,30.10,29.99,29.83,10,10,5,12,4,15,0.00,0,,355
2012-11-3,41,38,34,38,35,29,92,84,75,30.16,30.12,30.07,10,10,6,13,6,16,0.18,6,Rain,60
2012-11-4,49,38,27,34,30,26,96,73,50,30.22,30.18,30.15,10,8,3,14,4,18,0.00,0,,4
2012-11-5,50,37,23,30,26,21,96,71,45,30.18,30.14,30.09,10,8,3,9,2,13,0.00,0,,69
2012-11-6,51,38,25,39,31,23,92,69,46,30.09,30.00,29.91,10,8,4,7,2,10,0.03,5,Rain,181
2012-11-7,47,40,32,39,38,31,100,86,71,30.16,29.98,29.88,10,4,1,8,2,10,0.05,7,Rain,43
2012-11-8,49,38,27,37,32,26,100,81,61,30.26,30.20,30.14,10,3,0,9,1,12,0.00,3,Fog,278
2012-11-9,62,45,28,41,33,27,100,72,43,30.22,30.14,30.06,10,5,0,17,7,21,0.00,1,Fog,154
2012-11-10,73,61,48,47,42,39,71,53,35,30.15,30.10,30.05,10,10,10,21,10,28,0.00,0,,185
2012-11-11,67,60,53,53,44,41,64,54,44,30.15,30.05,29.95,10,10,8,25,13,35,0.09,2,Rain,178
2012-11-12,57,43,28,54,38,21,96,72,48,30.41,30.13,29.96,10,6,0,21,8,29,0.77,6,Fog-Rain-Snow,267
2012-11-13,43,34,24,24,22,21,85,64,43,30.53,30.48,30.41,10,10,10,8,2,14,0.00,0,,351
2012-11-14,44,34,24,27,24,20,92,71,49,30.53,30.46,30.39,10,10,8,13,3,16,0.00,0,,84
2012-11-15,47,35,22,30,25,20,96,73,49,30.40,30.37,30.33,10,6,2,7,1,9,0.00,0,,39
2012-11-16,53,38,22,32,26,20,96,67,38,30.49,30.44,30.38,10,6,2,10,2,13,0.00,0,,44
2012-11-17,57,40,23,34,27,22,92,61,30,30.56,30.48,30.44,10,6,2,10,2,13,0.00,0,,93
2012-11-18,61,44,27,32,28,24,92,60,27,30.44,30.40,30.34,10,10,10,8,1,9,0.00,0,,128
2012-11-19,60,45,30,39,33,27,85,61,36,30.35,30.28,30.17,10,10,7,8,0,10,0.00,2,,120
2012-11-20,59,49,39,43,40,35,85,68,51,30.16,30.11,30.06,10,10,8,9,2,13,0.00,7,,259
2012-11-21,63,49,35,46,41,34,100,74,48,30.25,30.20,30.14,10,4,0,8,2,9,0.00,1,Fog,7
2012-11-22,64,47,30,47,36,28,100,70,39,30.20,30.13,29.99,10,6,0,26,7,36,0.08,1,Fog-Rain,189
2012-11-23,53,41,28,51,34,17,93,72,51,30.24,30.08,29.96,10,9,4,24,11,36,0.16,5,Rain,287
2012-11-24,31,26,21,20,18,15,81,72,63,30.30,30.23,30.11,10,10,9,9,4,14,0.00,4,,270
2012-11-25,48,37,26,30,25,21,82,62,42,30.10,30.00,29.91,10,10,9,20,7,28,0.00,0,,226
2012-11-26,48,36,24,30,27,22,92,66,39,30.27,30.16,30.06,10,9,3,17,5,21,0.00,4,,18
2012-11-27,41,32,23,29,25,20,92,71,50,30.40,30.32,30.26,10,9,4,13,4,16,0.00,3,,6
2012-11-28,45,34,22,25,21,19,88,64,40,30.45,30.39,30.33,10,8,4,8,1,13,0.00,0,,265
2012-11-29,51,36,20,29,26,19,92,67,41,30.39,30.29,30.18,10,9,4,16,6,21,0.00,0,,190
2012-11-30,58,48,38,38,32,26,79,61,42,30.19,30.16,30.11,10,10,7,21,9,28,0.00,1,,209